KVPS/VPS METAR and TAF weather

Enter ICAO airport designator
Station Type Date Time Source
KVPS METAR 2019/10/21 02:56 UTC NOAA

KVPS 210256Z AUTO 00000KT 10SM CLR 20/19 A2995 RMK AO2 SLP148 T02040194 52013 $


Station Type Date Time Source
KVPS Decoded METAR 2019/10/21 02:56 UTC NOAA

Valparaiso / Eglin Air Force Base, FL, United States (KVPS) 30-29N 086-31W 29M
Oct 20, 2019 - 10:56 PM EDT / 2019.10.21 0256 UTC
Wind: Calm:0
Visibility: 10 mile(s):0
Sky conditions: clear
Temperature: 68.7 F (20.4 C)
Dew Point: 66.9 F (19.4 C)
Relative Humidity: 93%
Pressure (altimeter): 29.95 in. Hg (1014 hPa)
Pressure tendency: 0.04 inches (1.3 hPa) higher than three hours ago
ob: KVPS 210256Z AUTO 00000KT 10SM CLR 20/19 A2995 RMK AO2 SLP148 T02040194 52013
cycle: 3

Station Type Date Time Source
KVPS TAF 2019/10/21 01:09 UTC NOAA

TAF KVPS 210100Z 2101/2207 15007KT 9999 FEW025 QNH2991INS
BECMG 2102/2103 09005KT 9999 SCT020 SCT100 QNH2990INS
BECMG 2114/2115 16012KT 9999 SCT025 BKN090 BKN250 QNH2988INS
BECMG 2119/2120 20010G15KT 9000 -SHRA VCTS BKN025CB BKN080 OVC200 QNH2986INS
BECMG 2123/2124 18012G18KT 6000 -SHRA VCTS SCT010 BKN025CB BKN080 OVC130 QNH2988INS
TEMPO 2200/2205 20012G20KT 4800 -TSRA BKN015CB OVC040
BECMG 2205/2206 21010G15KT 9999 NSW BKN025 BKN250 QNH2989INS TX26/2119Z TN16/2112Z

Example: see airport list